Time;durP1;ratioP1;P1;durP2;ratioP2;P2;SDS_P1;SDS_P2;PMS_P1;PMS_P2;Temp;Humidity;BMP_temperature;BMP_pressure;BME280_temperature;BME280_humidity;BME280_pressure;Samples;Min_cycle;Max_cycle;Signal;HPM_P1;HPM_P2
2023/10/29 00:00:17;;;;;;;2.67;0.70;;;12.90;99.90;;;;;;5037999;28;20048;-53
2023/10/29 00:02:44;;;;;;;2.03;0.93;;;13.00;99.90;;;;;;5020906;28;20466;-53
2023/10/29 00:05:09;;;;;;;1.75;0.80;;;13.10;99.90;;;;;;5020588;28;20034;-50
2023/10/29 00:07:35;;;;;;;1.70;0.90;;;13.10;99.90;;;;;;5037329;28;20022;-53
2023/10/29 00:10:01;;;;;;;1.42;0.80;;;13.10;99.90;;;;;;5037570;28;20550;-53
2023/10/29 00:12:26;;;;;;;1.27;0.77;;;13.10;99.90;;;;;;5019266;28;20087;-53
2023/10/29 00:14:52;;;;;;;1.13;0.57;;;13.20;99.90;;;;;;5038053;28;20029;-51
2023/10/29 00:17:17;;;;;;;2.42;0.60;;;13.20;99.90;;;;;;5038147;28;20482;-54
2023/10/29 00:19:43;;;;;;;1.83;0.60;;;13.30;99.90;;;;;;5019742;28;20064;-53
2023/10/29 00:22:09;;;;;;;0.63;0.50;;;13.40;99.90;;;;;;5037971;28;20101;-55
2023/10/29 00:24:34;;;;;;;2.95;0.60;;;13.40;99.90;;;;;;5037848;28;20036;-54
2023/10/29 00:27:00;;;;;;;2.60;0.70;;;13.40;99.90;;;;;;5037975;28;20490;-54
2023/10/29 00:29:25;;;;;;;2.85;0.77;;;13.40;99.90;;;;;;5019781;28;20032;-55
2023/10/29 00:31:51;;;;;;;4.07;0.60;;;13.40;99.90;;;;;;5019775;28;20029;-54
2023/10/29 00:34:17;;;;;;;3.20;0.70;;;13.40;99.90;;;;;;5019344;28;20036;-55
2023/10/29 00:36:43;;;;;;;0.40;0.35;;;13.50;99.90;;;;;;5037719;28;20026;-51
2023/10/29 00:39:09;;;;;;;1.35;0.60;;;13.50;99.90;;;;;;5037199;28;20029;-54
2023/10/29 00:41:35;;;;;;;3.65;0.70;;;13.50;99.90;;;;;;5036922;28;20025;-52
2023/10/29 00:44:00;;;;;;;0.70;0.50;;;13.50;99.90;;;;;;5037391;28;20105;-52
2023/10/29 00:46:26;;;;;;;1.27;0.68;;;13.60;99.90;;;;;;5019147;28;20474;-55
2023/10/29 00:48:52;;;;;;;0.95;0.60;;;13.60;99.90;;;;;;5019373;28;20032;-48
2023/10/29 00:51:18;;;;;;;1.45;0.55;;;13.60;99.90;;;;;;5019427;28;20533;-52
2023/10/29 00:53:45;;;;;;;2.55;0.90;;;13.60;99.90;;;;;;5037769;28;20033;-55
2023/10/29 00:56:12;;;;;;;0.63;0.40;;;13.60;99.90;;;;;;5037260;28;20398;-49
2023/10/29 00:58:39;;;;;;;2.38;1.08;;;13.60;99.90;;;;;;5037243;28;20128;-54
2023/10/29 01:01:05;;;;;;;1.77;0.65;;;13.60;99.90;;;;;;5037097;28;20087;-52
2023/10/29 01:03:30;;;;;;;1.13;0.70;;;13.60;99.90;;;;;;5036814;28;20029;-53
2023/10/29 01:05:56;;;;;;;1.10;0.75;;;13.60;99.90;;;;;;5019497;28;20028;-54
2023/10/29 01:08:24;;;;;;;1.05;0.80;;;13.60;99.90;;;;;;5019252;28;20304;-52
2023/10/29 01:10:51;;;;;;;1.83;0.60;;;13.60;99.90;;;;;;5018800;28;20041;-52
2023/10/29 01:13:17;;;;;;;1.60;0.73;;;13.60;99.90;;;;;;5037185;28;20042;-53
2023/10/29 01:15:42;;;;;;;2.40;0.70;;;13.60;99.90;;;;;;5002167;28;20033;-51
2023/10/29 01:18:08;;;;;;;1.95;0.70;;;13.60;99.90;;;;;;5018364;28;20106;-50
2023/10/29 01:20:34;;;;;;;1.88;0.70;;;13.60;99.90;;;;;;5036683;28;20099;-52
2023/10/29 01:22:59;;;;;;;2.42;0.80;;;13.60;99.90;;;;;;5018463;28;20116;-54
2023/10/29 01:25:25;;;;;;;2.75;0.77;;;13.60;99.90;;;;;;5036192;28;20037;-53
2023/10/29 01:27:52;;;;;;;1.73;1.00;;;13.60;99.90;;;;;;5036636;28;20041;-53
2023/10/29 01:30:18;;;;;;;3.30;0.50;;;13.70;99.90;;;;;;5036096;28;20033;-53
2023/10/29 01:32:43;;;;;;;2.17;0.60;;;13.70;99.90;;;;;;5018658;28;20033;-54
2023/10/29 01:35:09;;;;;;;4.18;0.90;;;13.70;99.90;;;;;;5018367;28;20417;-52
2023/10/29 01:37:34;;;;;;;2.67;0.90;;;13.70;99.90;;;;;;5018413;28;20070;-55
2023/10/29 01:40:00;;;;;;;3.45;0.75;;;13.70;99.90;;;;;;5036068;28;20033;-54
2023/10/29 01:42:26;;;;;;;1.52;0.82;;;13.70;99.90;;;;;;5018666;28;20085;-51
2023/10/29 01:44:52;;;;;;;1.27;0.85;;;13.70;99.90;;;;;;5018606;28;20072;-55
2023/10/29 01:47:17;;;;;;;2.05;0.70;;;13.70;99.90;;;;;;5019072;28;20040;-53
2023/10/29 01:49:43;;;;;;;1.67;0.63;;;13.70;99.90;;;;;;5036354;28;20123;-54
2023/10/29 01:52:08;;;;;;;1.60;0.70;;;13.70;99.90;;;;;;5001654;28;20115;-53
2023/10/29 01:54:34;;;;;;;2.50;0.80;;;13.70;99.90;;;;;;5017712;28;20128;-53
2023/10/29 01:57:00;;;;;;;1.45;0.60;;;13.70;99.90;;;;;;5018459;28;20033;-52
2023/10/29 01:59:29;;;;;;;0.80;0.45;;;13.70;99.90;;;;;;5018390;28;20040;-52
2023/10/29 02:01:54;;;;;;;2.30;0.80;;;13.60;99.90;;;;;;5017949;28;20052;-54
2023/10/29 02:04:26;;;;;;;2.17;0.73;;;13.60;99.90;;;;;;5018063;28;20025;-55
2023/10/29 02:06:55;;;;;;;0.77;0.55;;;13.50;99.90;;;;;;5018323;28;20030;-55
2023/10/29 02:09:21;;;;;;;;;;;13.50;99.90;;;;;;5036393;28;20056;-54
2023/10/29 02:11:46;;;;;;;2.47;0.60;;;13.50;99.90;;;;;;5018281;28;19916;-55
2023/10/29 02:14:12;;;;;;;2.10;0.80;;;13.50;99.90;;;;;;5018155;28;20040;-54
2023/10/29 02:16:38;;;;;;;4.03;0.90;;;13.50;99.90;;;;;;5017991;28;20029;-53
2023/10/29 02:19:03;;;;;;;4.57;0.90;;;13.50;99.90;;;;;;5017778;28;20441;-53
2023/10/29 02:21:29;;;;;;;2.33;0.70;;;13.50;99.90;;;;;;5002042;28;20042;-54
2023/10/29 02:23:56;;;;;;;5.13;0.88;;;13.40;99.90;;;;;;5017956;28;20029;-49
2023/10/29 02:26:22;;;;;;;3.65;0.90;;;13.40;99.90;;;;;;5017735;28;20059;-51
2023/10/29 02:28:48;;;;;;;3.20;0.93;;;13.40;99.90;;;;;;5035912;28;20401;-54
2023/10/29 02:31:21;;;;;;;2.05;0.75;;;13.40;99.90;;;;;;5022118;28;20044;-54
2023/10/29 02:33:46;;;;;;;3.03;0.57;;;13.40;99.90;;;;;;5021895;28;20044;-54
2023/10/29 02:36:13;;;;;;;2.22;0.77;;;13.40;99.90;;;;;;5039768;28;20029;-52
2023/10/29 02:38:40;;;;;;;1.80;0.70;;;13.40;99.90;;;;;;5021622;28;20397;-52
2023/10/29 02:41:06;;;;;;;3.50;0.65;;;13.40;99.90;;;;;;5039581;28;20034;-55
2023/10/29 02:43:38;;;;;;;2.28;0.70;;;13.50;99.90;;;;;;5022009;28;20113;-54
2023/10/29 02:46:04;;;;;;;2.28;0.80;;;13.50;99.90;;;;;;5021698;28;20033;-54
2023/10/29 02:48:29;;;;;;;2.17;0.77;;;13.50;99.90;;;;;;5039027;28;20053;-54
2023/10/29 02:50:55;;;;;;;1.90;0.77;;;13.50;99.90;;;;;;5021754;28;20049;-54
2023/10/29 02:53:21;;;;;;;2.50;0.70;;;13.60;99.90;;;;;;5039590;28;20032;-54
2023/10/29 02:55:47;;;;;;;3.33;0.63;;;13.60;99.90;;;;;;5021922;28;20041;-53
2023/10/29 02:58:13;;;;;;;1.25;0.43;;;13.60;99.90;;;;;;5039176;28;20068;-55
2023/10/29 03:00:39;;;;;;;1.48;0.70;;;13.70;99.90;;;;;;5020987;28;20087;-54
2023/10/29 03:03:05;;;;;;;3.53;0.75;;;13.70;99.90;;;;;;5021923;28;20029;-54
2023/10/29 03:05:31;;;;;;;3.53;0.60;;;13.70;99.90;;;;;;5038947;28;20032;-55
2023/10/29 03:07:59;;;;;;;0.93;0.55;;;13.70;99.90;;;;;;5021489;28;20034;-53
2023/10/29 03:10:24;;;;;;;1.25;0.60;;;13.70;99.90;;;;;;5021230;28;20075;-55
2023/10/29 03:12:50;;;;;;;2.40;0.68;;;13.80;99.90;;;;;;5038675;28;20029;-53
2023/10/29 03:15:16;;;;;;;1.27;0.65;;;13.80;99.90;;;;;;5020970;28;20490;-52
2023/10/29 03:17:41;;;;;;;1.25;0.70;;;13.80;99.90;;;;;;5021326;28;20033;-53
2023/10/29 03:20:07;;;;;;;1.48;0.50;;;13.80;99.90;;;;;;5038702;28;20022;-54
2023/10/29 03:22:34;;;;;;;2.83;0.75;;;13.80;99.90;;;;;;5020919;28;20033;-53
2023/10/29 03:25:00;;;;;;;1.15;0.30;;;13.80;99.90;;;;;;5021223;28;20680;-54
2023/10/29 03:27:26;;;;;;;1.40;0.68;;;13.80;99.90;;;;;;5021752;28;20026;-55
2023/10/29 03:29:53;;;;;;;1.00;0.60;;;13.90;99.90;;;;;;5039159;28;20061;-54
2023/10/29 03:32:18;;;;;;;1.42;0.50;;;13.90;99.90;;;;;;5039260;28;20044;-54
2023/10/29 03:34:44;;;;;;;3.60;0.65;;;13.90;99.90;;;;;;5039431;28;20029;-55
2023/10/29 03:37:09;;;;;;;2.42;0.60;;;13.90;99.90;;;;;;5038665;28;20033;-54
2023/10/29 03:39:35;;;;;;;1.63;0.50;;;13.90;99.90;;;;;;5038178;28;20033;-52
2023/10/29 03:42:02;;;;;;;1.02;0.60;;;13.90;99.90;;;;;;5037949;28;20056;-51
2023/10/29 03:44:28;;;;;;;2.20;0.70;;;13.90;99.90;;;;;;5021011;28;20026;-53
2023/10/29 03:46:53;;;;;;;0.88;0.50;;;13.90;99.90;;;;;;5020644;28;20543;-50
2023/10/29 03:49:19;;;;;;;1.95;0.52;;;13.90;99.90;;;;;;5020632;28;20030;-54
2023/10/29 03:51:47;;;;;;;2.35;0.57;;;14.00;99.90;;;;;;5020252;28;20041;-52
2023/10/29 03:54:12;;;;;;;1.33;0.45;;;13.90;99.90;;;;;;5021123;28;20033;-53
2023/10/29 03:56:38;;;;;;;1.98;0.77;;;14.00;99.90;;;;;;5020329;28;20044;-51
2023/10/29 03:59:04;;;;;;;1.55;0.60;;;13.90;99.90;;;;;;5020782;28;20041;-54
2023/10/29 04:01:29;;;;;;;1.92;0.50;;;14.00;99.90;;;;;;5020611;28;20033;-53
2023/10/29 04:03:55;;;;;;;2.22;0.60;;;14.00;99.90;;;;;;5037709;28;20049;-53
2023/10/29 04:06:21;;;;;;;1.85;0.60;;;14.00;99.90;;;;;;5038206;28;20026;-54
2023/10/29 04:08:47;;;;;;;1.65;0.70;;;14.00;99.90;;;;;;5037637;28;20040;-52
2023/10/29 04:11:13;;;;;;;0.82;0.30;;;14.00;99.90;;;;;;5020190;28;20053;-56
2023/10/29 04:13:39;;;;;;;3.00;0.63;;;14.00;99.90;;;;;;5020101;28;20112;-53
2023/10/29 04:16:05;;;;;;;1.63;0.80;;;14.00;99.90;;;;;;5019875;28;20033;-55
2023/10/29 04:18:33;;;;;;;1.67;0.40;;;14.00;99.90;;;;;;5019193;28;20120;-54
2023/10/29 04:21:01;;;;;;;1.58;0.45;;;14.00;99.90;;;;;;5037597;28;20505;-55
2023/10/29 04:23:27;;;;;;;3.03;0.52;;;14.10;99.90;;;;;;5037686;28;20033;-53
2023/10/29 04:25:52;;;;;;;1.00;0.50;;;14.10;99.90;;;;;;5037475;28;20029;-56
2023/10/29 04:28:18;;;;;;;0.93;0.40;;;14.00;99.90;;;;;;5037729;28;20083;-53
2023/10/29 04:30:44;;;;;;;1.40;0.60;;;14.10;99.90;;;;;;5037881;28;20075;-54
2023/10/29 04:33:09;;;;;;;3.00;0.60;;;14.10;99.90;;;;;;5037578;28;20022;-51
2023/10/29 04:35:35;;;;;;;3.72;0.70;;;14.10;99.90;;;;;;5002615;28;20072;-53
2023/10/29 04:38:00;;;;;;;1.25;0.50;;;14.10;99.90;;;;;;5037412;28;20059;-53
2023/10/29 04:40:26;;;;;;;0.80;0.50;;;14.10;99.90;;;;;;5036952;28;20029;-52
2023/10/29 04:42:52;;;;;;;0.73;0.50;;;14.10;99.90;;;;;;5020240;28;20131;-53
2023/10/29 04:45:17;;;;;;;3.10;0.47;;;14.10;99.90;;;;;;5037060;28;20035;-52
2023/10/29 04:47:43;;;;;;;1.75;0.50;;;14.10;99.90;;;;;;5037180;28;20114;-52
2023/10/29 04:50:08;;;;;;;0.65;0.50;;;14.20;99.90;;;;;;5036232;28;20398;-52
2023/10/29 04:52:34;;;;;;;1.38;0.50;;;14.20;99.90;;;;;;5036076;28;20029;-53
2023/10/29 04:55:01;;;;;;;1.75;0.77;;;14.20;99.90;;;;;;5019390;28;20034;-52
2023/10/29 04:57:30;;;;;;;2.58;0.88;;;14.20;99.90;;;;;;5037638;28;20037;-51
2023/10/29 04:59:55;;;;;;;2.42;0.68;;;14.20;99.90;;;;;;5036900;28;20033;-52
2023/10/29 05:02:22;;;;;;;5.70;2.70;;;14.30;99.90;;;;;;5036990;28;20063;-53
2023/10/29 05:04:49;;;;;;;1.38;0.50;;;14.30;99.90;;;;;;5036928;28;20045;-52
2023/10/29 05:07:15;;;;;;;1.10;0.50;;;14.30;99.90;;;;;;5037172;28;20139;-52
2023/10/29 05:09:40;;;;;;;0.65;0.38;;;14.20;99.90;;;;;;5036344;28;20033;-54
2023/10/29 05:12:07;;;;;;;0.73;0.50;;;14.20;99.90;;;;;;5036506;28;20474;-54
2023/10/29 05:14:32;;;;;;;1.58;0.70;;;14.20;99.90;;;;;;5036812;28;20468;-49
2023/10/29 05:16:58;;;;;;;2.10;0.75;;;14.20;99.90;;;;;;5036440;28;20076;-53
2023/10/29 05:19:24;;;;;;;0.98;0.40;;;14.20;99.90;;;;;;5036211;28;20429;-51
2023/10/29 05:21:50;;;;;;;0.80;0.50;;;14.20;99.90;;;;;;5036169;28;20033;-51
2023/10/29 05:24:16;;;;;;;0.90;0.50;;;14.20;99.90;;;;;;5037257;28;20029;-54
2023/10/29 05:26:42;;;;;;;0.88;0.40;;;14.10;99.90;;;;;;5036137;28;20066;-53
2023/10/29 05:29:08;;;;;;;2.17;0.47;;;14.10;99.90;;;;;;5036079;28;20521;-54
2023/10/29 05:31:33;;;;;;;0.88;0.50;;;14.20;99.90;;;;;;5018162;28;20033;-53
2023/10/29 05:34:00;;;;;;;0.47;0.40;;;14.20;99.90;;;;;;5036106;28;20028;-54
2023/10/29 05:36:25;;;;;;;2.08;0.60;;;14.20;99.90;;;;;;5035959;28;20392;-51
2023/10/29 05:38:51;;;;;;;2.00;0.50;;;14.20;99.90;;;;;;5035367;28;20036;-50
2023/10/29 05:41:17;;;;;;;2.67;0.35;;;14.10;99.90;;;;;;5035748;28;20367;-52
2023/10/29 05:43:43;;;;;;;2.45;0.57;;;14.20;99.90;;;;;;5036262;28;20053;-52
2023/10/29 05:46:12;;;;;;;1.40;0.50;;;14.30;99.90;;;;;;5018256;28;20532;-51
2023/10/29 05:48:39;;;;;;;1.95;0.40;;;14.40;99.90;;;;;;5036079;28;20410;-54
2023/10/29 05:51:04;;;;;;;1.83;0.30;;;14.50;99.90;;;;;;5018816;28;20033;-54
2023/10/29 05:53:30;;;;;;;0.90;0.40;;;14.60;99.90;;;;;;5036163;28;20089;-52
2023/10/29 05:55:56;;;;;;;3.55;0.55;;;14.70;99.90;;;;;;5035534;28;20055;-54
2023/10/29 05:58:24;;;;;;;2.60;0.30;;;14.80;99.90;;;;;;5035893;28;20030;-53
2023/10/29 06:00:50;;;;;;;1.95;0.30;;;14.90;99.90;;;;;;5036195;28;20513;-55
2023/10/29 06:03:16;;;;;;;0.55;0.32;;;15.00;99.90;;;;;;5035655;28;20060;-55
2023/10/29 06:05:41;;;;;;;1.13;0.45;;;15.00;99.90;;;;;;5035484;28;20414;-53
2023/10/29 06:08:07;;;;;;;0.68;0.30;;;15.10;99.90;;;;;;5035462;28;20039;-52
2023/10/29 06:10:33;;;;;;;0.88;0.30;;;15.10;99.90;;;;;;5036224;28;20043;-54
2023/10/29 06:12:59;;;;;;;1.38;0.60;;;15.10;99.90;;;;;;5017861;28;20033;-54
2023/10/29 06:15:25;;;;;;;1.90;0.73;;;15.10;99.90;;;;;;5035728;28;20034;-54
2023/10/29 06:17:53;;;;;;;1.13;0.43;;;15.10;99.90;;;;;;5017292;28;20109;-54
2023/10/29 06:20:20;;;;;;;1.60;0.50;;;15.10;99.90;;;;;;5035470;28;20293;-55
2023/10/29 06:22:47;;;;;;;1.55;0.43;;;15.10;99.90;;;;;;5035632;28;20395;-54
2023/10/29 06:25:14;;;;;;;2.17;0.50;;;15.10;99.90;;;;;;5035213;28;20545;-55
2023/10/29 06:27:39;;;;;;;0.30;0.30;;;15.10;99.90;;;;;;5017828;28;20495;-54
2023/10/29 06:30:06;;;;;;;1.33;0.40;;;15.10;99.90;;;;;;5035570;28;20034;-53
2023/10/29 06:32:32;;;;;;;2.42;0.40;;;15.10;99.90;;;;;;5035572;28;20041;-51
2023/10/29 06:34:57;;;;;;;1.15;0.50;;;15.00;99.90;;;;;;5035643;28;20037;-54
2023/10/29 06:37:23;;;;;;;1.23;0.60;;;15.00;99.90;;;;;;5035508;28;20037;-55
2023/10/29 06:39:49;;;;;;;1.08;0.40;;;14.90;99.90;;;;;;5035676;28;20034;-54
2023/10/29 06:42:14;;;;;;;0.70;0.40;;;15.00;99.90;;;;;;5035738;28;20029;-52
2023/10/29 06:44:40;;;;;;;2.00;0.40;;;15.00;99.90;;;;;;5036136;28;20044;-55
2023/10/29 06:47:06;;;;;;;6.85;0.80;;;15.00;99.90;;;;;;5017289;28;20036;-55
2023/10/29 06:49:31;;;;;;;2.63;0.45;;;15.00;99.90;;;;;;5034334;28;20394;-54
2023/10/29 06:51:57;;;;;;;4.55;0.63;;;15.00;99.90;;;;;;5017996;28;20037;-54
2023/10/29 06:54:23;;;;;;;2.45;0.40;;;15.00;99.90;;;;;;5035369;28;20076;-51
2023/10/29 06:56:48;;;;;;;0.40;0.40;;;15.00;99.90;;;;;;5035369;28;20509;-51
2023/10/29 06:59:14;;;;;;;2.00;1.25;;;14.90;99.90;;;;;;5000938;28;20036;-54
2023/10/29 07:01:40;;;;;;;2.53;0.50;;;14.80;99.90;;;;;;5035599;28;20065;-55
2023/10/29 07:04:06;;;;;;;3.22;0.70;;;14.80;99.90;;;;;;5034849;28;20045;-51
2023/10/29 07:06:32;;;;;;;2.28;0.38;;;14.80;99.90;;;;;;5034863;28;20034;-52
2023/10/29 07:08:57;;;;;;;1.83;0.50;;;14.80;99.90;;;;;;5034951;28;20115;-54
2023/10/29 07:11:23;;;;;;;3.67;0.65;;;14.70;99.90;;;;;;5035453;28;20030;-52
2023/10/29 07:13:49;;;;;;;2.03;0.50;;;14.70;99.90;;;;;;5034821;28;20033;-54
2023/10/29 07:16:16;;;;;;;2.08;0.60;;;14.70;99.90;;;;;;5035944;28;20502;-55
2023/10/29 07:18:43;;;;;;;3.75;0.57;;;14.70;99.90;;;;;;5038792;28;20041;-55
2023/10/29 07:21:08;;;;;;;2.13;0.50;;;14.70;99.90;;;;;;5038856;28;20397;-54
2023/10/29 07:23:34;;;;;;;3.00;0.75;;;14.70;99.90;;;;;;5039204;28;20034;-53
2023/10/29 07:25:59;;;;;;;3.03;0.45;;;14.70;99.90;;;;;;5038869;28;20053;-55
2023/10/29 07:28:26;;;;;;;3.28;0.80;;;14.70;99.90;;;;;;5038292;28;20097;-51
2023/10/29 07:30:52;;;;;;;1.35;0.43;;;14.60;99.90;;;;;;5038873;28;20076;-52
2023/10/29 07:33:17;;;;;;;0.70;0.32;;;14.60;99.90;;;;;;5038006;28;20033;-50
2023/10/29 07:35:43;;;;;;;2.67;1.08;;;14.60;99.90;;;;;;5038426;28;20117;-54
2023/10/29 07:38:09;;;;;;;4.95;0.98;;;14.60;99.90;;;;;;5038096;28;20030;-54
2023/10/29 07:40:36;;;;;;;1.00;0.57;;;14.60;99.90;;;;;;5038198;28;20068;-53
2023/10/29 07:43:01;;;;;;;2.03;0.43;;;14.60;99.90;;;;;;5038052;28;20486;-55
2023/10/29 07:45:27;;;;;;;2.17;0.30;;;14.60;99.90;;;;;;5038010;28;20029;-55
2023/10/29 07:47:52;;;;;;;1.00;0.40;;;14.50;99.90;;;;;;5038130;28;20424;-55
2023/10/29 07:50:20;;;;;;;5.68;0.40;;;14.50;99.90;;;;;;5037860;28;20025;-54
2023/10/29 07:52:46;;;;;;;2.97;0.40;;;14.50;99.90;;;;;;5037521;28;20056;-54
2023/10/29 07:55:11;;;;;;;0.43;0.30;;;14.50;99.90;;;;;;5019846;28;20200;-49
2023/10/29 07:57:40;;;;;;;3.95;0.95;;;14.60;99.90;;;;;;5038251;28;20478;-54
2023/10/29 08:00:15;;;;;;;1.00;0.32;;;14.60;99.90;;;;;;5037461;28;20041;-53
2023/10/29 08:02:42;;;;;;;3.13;0.60;;;14.70;99.90;;;;;;5019896;28;20040;-54
2023/10/29 08:05:11;;;;;;;3.65;0.82;;;14.80;99.90;;;;;;5036850;28;20029;-55
2023/10/29 08:07:39;;;;;;;1.65;0.40;;;14.90;99.90;;;;;;5037772;28;20038;-54
2023/10/29 08:10:05;;;;;;;1.27;0.38;;;14.80;99.90;;;;;;5019143;28;20506;-55
2023/10/29 08:12:31;;;;;;;4.25;0.50;;;14.80;99.90;;;;;;5037818;28;20037;-55
2023/10/29 08:14:57;;;;;;;1.65;0.35;;;14.70;99.90;;;;;;5037663;28;20064;-53
2023/10/29 08:17:23;;;;;;;2.47;0.40;;;14.70;99.90;;;;;;5038061;28;20030;-54
2023/10/29 08:19:48;;;;;;;2.35;0.63;;;14.60;99.90;;;;;;5019363;28;20037;-55
2023/10/29 08:22:14;;;;;;;2.05;0.70;;;14.60;99.90;;;;;;5037680;28;20025;-53
2023/10/29 08:24:40;;;;;;;5.32;0.98;;;14.60;99.90;;;;;;5037679;28;20025;-51
2023/10/29 08:27:06;;;;;;;2.40;0.60;;;14.60;99.90;;;;;;5019422;28;20477;-53
2023/10/29 08:29:37;;;;;;;2.08;0.60;;;14.60;99.90;;;;;;5036473;28;20040;-54
2023/10/29 08:32:02;;;;;;;4.03;0.77;;;14.60;99.90;;;;;;5037058;28;20032;-54
2023/10/29 08:34:29;;;;;;;4.13;0.30;;;14.60;99.90;;;;;;5037379;28;20064;-55
2023/10/29 08:36:55;;;;;;;3.63;0.50;;;14.60;99.90;;;;;;5036990;28;20037;-54
2023/10/29 08:39:22;;;;;;;1.45;0.40;;;14.60;99.90;;;;;;5036992;28;20116;-50
2023/10/29 08:41:48;;;;;;;2.58;0.52;;;14.60;99.90;;;;;;5037011;28;20123;-54
2023/10/29 08:44:14;;;;;;;3.42;0.65;;;14.60;99.90;;;;;;5036743;28;20108;-55
2023/10/29 08:46:41;;;;;;;2.80;0.60;;;14.60;99.90;;;;;;5037369;28;20496;-54
2023/10/29 08:49:07;;;;;;;3.60;0.55;;;14.60;99.90;;;;;;5036451;28;20482;-54
2023/10/29 08:51:33;;;;;;;2.97;0.52;;;14.60;99.90;;;;;;5037551;28;20041;-52
2023/10/29 08:53:59;;;;;;;2.47;0.65;;;14.60;99.90;;;;;;5037340;28;20035;-53
2023/10/29 08:56:25;;;;;;;1.80;0.52;;;14.70;99.90;;;;;;5036616;28;20552;-50
2023/10/29 08:58:50;;;;;;;5.13;0.70;;;14.60;99.90;;;;;;5036052;28;20033;-54
2023/10/29 09:01:17;;;;;;;3.03;0.90;;;14.70;99.90;;;;;;5036369;28;20029;-54
2023/10/29 09:03:43;;;;;;;1.95;0.43;;;14.70;99.90;;;;;;5036326;28;20108;-55
2023/10/29 09:06:08;;;;;;;1.58;0.90;;;14.70;99.90;;;;;;5035779;28;20084;-54
2023/10/29 09:08:34;;;;;;;4.28;0.50;;;14.70;99.90;;;;;;5036313;28;20164;-55
2023/10/29 09:11:00;;;;;;;3.92;0.70;;;14.70;99.90;;;;;;5036398;28;20037;-54
2023/10/29 09:13:26;;;;;;;2.70;1.05;;;14.70;99.90;;;;;;5036910;28;20351;-55
2023/10/29 09:15:52;;;;;;;3.42;0.50;;;14.70;99.90;;;;;;5036006;28;20104;-53
2023/10/29 09:18:17;;;;;;;1.73;0.60;;;14.70;99.90;;;;;;5035517;28;20029;-52
2023/10/29 09:20:46;;;;;;;2.75;0.65;;;14.70;99.90;;;;;;5035927;28;20442;-55
2023/10/29 09:23:14;;;;;;;4.05;1.10;;;14.80;99.90;;;;;;5018860;28;20482;-53
2023/10/29 09:25:43;;;;;;;1.80;0.80;;;14.90;99.90;;;;;;5018520;28;20060;-54
2023/10/29 09:28:11;;;;;;;3.00;0.60;;;14.90;99.90;;;;;;5036539;28;20037;-54
2023/10/29 09:30:37;;;;;;;1.65;0.40;;;15.10;99.90;;;;;;5018390;28;20071;-53
2023/10/29 09:33:03;;;;;;;1.58;0.55;;;15.10;99.90;;;;;;5036206;28;20037;-52
2023/10/29 09:35:29;;;;;;;2.28;0.50;;;15.00;99.90;;;;;;5035393;28;20033;-53
2023/10/29 09:37:54;;;;;;;1.63;0.52;;;15.00;99.90;;;;;;5035721;28;20437;-53
2023/10/29 09:40:20;;;;;;;3.15;0.50;;;14.90;99.90;;;;;;5035031;28;20053;-54
2023/10/29 09:42:55;;;;;;;1.15;0.50;;;14.90;99.90;;;;;;5018242;28;20052;-54
2023/10/29 09:45:26;;;;;;;0.88;0.40;;;14.80;99.90;;;;;;5035615;28;20071;-55
2023/10/29 09:47:53;;;;;;;2.50;0.50;;;14.80;99.90;;;;;;5017395;28;20044;-55
2023/10/29 09:50:20;;;;;;;1.73;0.65;;;14.90;99.90;;;;;;5035278;28;20064;-53
2023/10/29 09:52:50;;;;;;;2.72;0.57;;;14.90;99.90;;;;;;5035554;28;20434;-54
2023/10/29 09:55:18;;;;;;;1.45;0.60;;;14.90;99.90;;;;;;5035214;28;20060;-55
2023/10/29 09:57:44;;;;;;;2.00;0.40;;;15.00;99.90;;;;;;5035668;28;20033;-50
2023/10/29 10:00:10;;;;;;;1.83;0.75;;;15.00;99.90;;;;;;5035736;28;20426;-54
2023/10/29 10:03:11;;;;;;;2.83;0.45;;;15.00;99.90;;;;;;5035291;28;20041;-55
2023/10/29 10:05:40;;;;;;;0.85;0.57;;;15.50;99.90;;;;;;5001272;28;20041;-51
2023/10/29 10:08:06;;;;;;;2.05;0.50;;;16.30;99.90;;;;;;5017752;28;20030;-54
2023/10/29 10:10:43;;;;;;;3.45;0.60;;;16.90;99.90;;;;;;5017807;28;20042;-52
2023/10/29 10:13:10;;;;;;;1.75;0.50;;;17.40;99.90;;;;;;5035647;28;20045;-50
2023/10/29 10:15:37;;;;;;;1.65;0.45;;;18.30;99.90;;;;;;5035227;28;20037;-54
2023/10/29 10:18:04;;;;;;;1.05;0.40;;;19.60;99.90;;;;;;5017476;28;20466;-55
2023/10/29 10:20:31;;;;;;;1.15;0.38;;;20.80;99.90;;;;;;5034940;28;20030;-54
2023/10/29 10:23:01;;;;;;;3.55;0.80;;;20.60;99.90;;;;;;5035571;28;20037;-53
2023/10/29 10:25:28;;;;;;;2.28;0.40;;;19.70;99.90;;;;;;5035126;28;20025;-51
2023/10/29 10:27:56;;;;;;;1.30;0.40;;;19.20;99.90;;;;;;5034848;28;20041;-53
2023/10/29 10:30:30;;;;;;;1.55;0.57;;;18.20;99.90;;;;;;5035271;28;20033;-53
2023/10/29 10:33:15;;;;;;;1.00;0.50;;;17.70;99.90;;;;;;5035416;28;20033;-50
2023/10/29 10:35:42;;;;;;;1.42;0.50;;;17.20;99.90;;;;;;5035359;28;20030;-53
2023/10/29 10:38:08;;;;;;;2.33;0.50;;;16.90;99.90;;;;;;5035417;28;20033;-53
2023/10/29 10:40:33;;;;;;;2.40;0.35;;;16.60;99.90;;;;;;5034923;28;20034;-50
2023/10/29 10:42:59;;;;;;;2.13;0.40;;;16.30;99.90;;;;;;5035732;28;20098;-51
2023/10/29 10:45:26;;;;;;;0.98;0.50;;;16.20;99.90;;;;;;5035262;28;20026;-54
2023/10/29 10:47:57;;;;;;;0.50;0.40;;;16.00;99.90;;;;;;5017549;28;20021;-53
2023/10/29 10:50:24;;;;;;;1.80;0.50;;;16.00;99.90;;;;;;5036637;28;20025;-53
2023/10/29 10:52:51;;;;;;;2.17;0.47;;;15.90;99.90;;;;;;5039115;28;20037;-53
2023/10/29 10:55:22;;;;;;;3.05;0.75;;;15.90;99.90;;;;;;5038887;28;20033;-54
2023/10/29 10:57:51;;;;;;;0.22;0.20;;;15.80;99.90;;;;;;5039391;28;20049;-51
2023/10/29 11:00:18;;;;;;;0.82;0.40;;;15.80;99.90;;;;;;5038952;28;20029;-53
2023/10/29 11:02:45;;;;;;;1.13;0.45;;;15.80;99.90;;;;;;5021408;28;20037;-54
2023/10/29 11:05:12;;;;;;;1.52;0.55;;;15.90;99.90;;;;;;5038588;28;20030;-55
2023/10/29 11:07:40;;;;;;;2.70;0.60;;;15.80;99.90;;;;;;5038825;28;20124;-54
2023/10/29 11:10:10;;;;;;;1.63;0.70;;;15.80;99.90;;;;;;5039178;28;20064;-54
2023/10/29 11:12:36;;;;;;;3.08;0.68;;;15.70;99.90;;;;;;5038636;28;20069;-53
2023/10/29 11:15:14;;;;;;;4.22;0.80;;;15.70;99.90;;;;;;5039427;28;20075;-54
2023/10/29 11:17:57;;;;;;;1.67;0.90;;;15.70;99.90;;;;;;5039501;28;20540;-50
2023/10/29 11:20:38;;;;;;;2.78;0.45;;;15.80;99.90;;;;;;5038907;28;20029;-52
2023/10/29 11:23:07;;;;;;;2.67;0.70;;;15.70;99.90;;;;;;5039473;28;20036;-53
2023/10/29 11:25:33;;;;;;;0.77;0.40;;;15.80;99.90;;;;;;5038553;28;20030;-49
2023/10/29 11:27:59;;;;;;;2.67;0.73;;;15.80;99.90;;;;;;5038880;28;20029;-50
2023/10/29 11:30:28;;;;;;;2.28;0.68;;;15.80;99.90;;;;;;5038358;28;20129;-50
2023/10/29 11:33:06;;;;;;;2.03;0.43;;;15.90;99.90;;;;;;5038846;28;20120;-51
2023/10/29 11:35:32;;;;;;;4.22;0.60;;;16.00;99.90;;;;;;5038588;28;20022;-51
2023/10/29 11:38:00;;;;;;;3.50;0.57;;;16.00;99.90;;;;;;5038974;28;20064;-50
2023/10/29 11:40:25;;;;;;;2.05;0.52;;;16.00;99.90;;;;;;5038638;28;20498;-51
2023/10/29 11:42:56;;;;;;;3.22;0.60;;;16.10;99.90;;;;;;5039159;28;20029;-52
2023/10/29 11:45:28;;;;;;;0.57;0.38;;;16.20;99.90;;;;;;5038961;28;20037;-52
2023/10/29 11:48:14;;;;;;;1.67;0.30;;;16.20;99.90;;;;;;5038686;28;20037;-50
2023/10/29 11:50:42;;;;;;;1.98;0.40;;;16.20;99.90;;;;;;5039258;28;20038;-50
2023/10/29 11:53:23;;;;;;;2.13;0.47;;;16.20;99.90;;;;;;5039192;28;20030;-51
2023/10/29 11:55:51;;;;;;;2.88;0.60;;;16.30;99.90;;;;;;5021703;28;20065;-55
2023/10/29 11:58:22;;;;;;;2.42;0.60;;;16.20;99.90;;;;;;5039396;28;20095;-50
2023/10/29 12:00:48;;;;;;;1.73;0.40;;;16.30;99.90;;;;;;5038727;28;20030;-49
2023/10/29 12:03:21;;;;;;;1.70;0.40;;;16.30;99.90;;;;;;5038476;28;20376;-52
2023/10/29 12:05:56;;;;;;;2.50;0.50;;;16.20;99.90;;;;;;5038951;28;20037;-52
2023/10/29 12:08:23;;;;;;;1.13;0.32;;;16.20;99.90;;;;;;5039033;28;20033;-50
2023/10/29 12:10:50;;;;;;;1.98;0.40;;;16.10;99.90;;;;;;5038805;28;20402;-53
2023/10/29 12:13:19;;;;;;;0.90;0.40;;;16.10;99.90;;;;;;5038832;28;20083;-51
2023/10/29 12:15:54;;;;;;;1.17;0.40;;;16.10;99.90;;;;;;5021168;28;20037;-49
2023/10/29 12:18:20;;;;;;;1.90;0.30;;;16.00;99.90;;;;;;5037118;28;20033;-53
2023/10/29 12:20:47;;;;;;;2.38;0.38;;;15.90;99.90;;;;;;5018440;28;20037;-55
2023/10/29 12:23:13;;;;;;;2.70;0.40;;;15.80;99.90;;;;;;5035679;28;20471;-53
2023/10/29 12:25:39;;;;;;;2.10;0.45;;;15.70;99.90;;;;;;5037315;28;20470;-51
2023/10/29 12:28:06;;;;;;;2.15;0.20;;;15.50;99.90;;;;;;5037317;28;20029;-52
2023/10/29 12:30:43;;;;;;;2.15;0.52;;;15.40;99.90;;;;;;5036846;28;20374;-50
2023/10/29 12:33:31;;;;;;;4.38;0.50;;;15.30;99.90;;;;;;5036531;28;20429;-54
2023/10/29 12:36:01;;;;;;;3.53;0.40;;;15.10;99.90;;;;;;5034432;28;20120;-53
2023/10/29 12:38:26;;;;;;;1.27;0.43;;;15.10;99.90;;;;;;5034826;28;20034;-53
2023/10/29 12:41:05;;;;;;;1.08;0.47;;;15.20;99.90;;;;;;5034912;28;20036;-52
2023/10/29 12:43:46;;;;;;;1.13;0.50;;;15.20;99.90;;;;;;5035169;28;20536;-54
2023/10/29 12:46:14;;;;;;;0.73;0.40;;;15.10;99.90;;;;;;5035050;28;20033;-54